Time;durP1;ratioP1;P1;durP2;ratioP2;P2;SDS_P1;SDS_P2;PMS_P1;PMS_P2;Temp;Humidity;BMP_temperature;BMP_pressure;BME280_temperature;BME280_humidity;BME280_pressure;Samples;Min_cycle;Max_cycle;Signal;HPM_P1;HPM_P2
2023/09/09 00:01:40;;;;;;;13.60;6.32;;;20.90;99.90;;;;;;5093412;28;20024;-79
2023/09/09 00:04:06;;;;;;;8.48;5.85;;;21.00;99.90;;;;;;5092662;28;20032;-78
2023/09/09 00:06:32;;;;;;;12.05;5.75;;;21.00;99.90;;;;;;5093571;28;20024;-78
2023/09/09 00:08:58;;;;;;;11.23;6.35;;;21.00;99.90;;;;;;5074571;28;20135;-78
2023/09/09 00:11:23;;;;;;;9.35;6.05;;;21.00;99.90;;;;;;5093119;28;20035;-78
2023/09/09 00:13:51;;;;;;;11.98;5.90;;;21.00;99.90;;;;;;5092813;28;20111;-78
2023/09/09 00:16:17;;;;;;;13.15;5.72;;;21.00;99.90;;;;;;5093399;28;20020;-78
2023/09/09 00:18:43;;;;;;;14.45;5.70;;;21.00;99.90;;;;;;5074936;28;20058;-78
2023/09/09 00:21:08;;;;;;;9.68;5.50;;;21.00;99.90;;;;;;5092876;28;20028;-78
2023/09/09 00:23:34;;;;;;;10.73;5.53;;;21.00;99.90;;;;;;5093674;28;20444;-79
2023/09/09 00:26:00;;;;;;;17.40;6.10;;;21.00;99.90;;;;;;5092527;28;20028;-78
2023/09/09 00:28:25;;;;;;;11.10;5.53;;;20.90;99.90;;;;;;5075037;28;20032;-79
2023/09/09 00:30:51;;;;;;;9.48;5.30;;;20.90;99.90;;;;;;5092892;28;20486;-79
2023/09/09 00:33:18;;;;;;;11.48;5.72;;;20.90;99.90;;;;;;5074876;28;20021;-78
2023/09/09 00:35:43;;;;;;;12.00;5.43;;;20.90;99.90;;;;;;5092984;28;20113;-78
2023/09/09 00:38:12;;;;;;;11.20;6.05;;;20.90;99.90;;;;;;5092505;28;20062;-78
2023/09/09 00:40:38;;;;;;;13.43;6.30;;;20.90;99.90;;;;;;5092759;28;20036;-78
2023/09/09 00:43:03;;;;;;;9.70;5.45;;;20.80;99.90;;;;;;5091514;28;20434;-78
2023/09/09 00:45:30;;;;;;;9.48;5.82;;;20.80;99.90;;;;;;5092826;28;20044;-79
2023/09/09 00:47:56;;;;;;;7.72;5.45;;;20.80;99.90;;;;;;5092178;28;20438;-79
2023/09/09 00:50:23;;;;;;;9.05;5.70;;;20.70;99.90;;;;;;5092542;28;20461;-79
2023/09/09 00:52:49;;;;;;;11.05;5.57;;;20.70;99.90;;;;;;5092043;28;20130;-79
2023/09/09 00:55:15;;;;;;;11.15;5.57;;;20.70;99.90;;;;;;5092013;28;20358;-78
2023/09/09 00:57:41;;;;;;;9.23;6.00;;;20.70;99.90;;;;;;5092356;28;20437;-78
2023/09/09 01:00:10;;;;;;;11.10;5.90;;;20.60;99.90;;;;;;5091508;28;20028;-78
2023/09/09 01:02:37;;;;;;;10.85;5.68;;;20.60;99.90;;;;;;5092191;28;20096;-80
2023/09/09 01:05:04;;;;;;;7.93;5.75;;;20.50;99.90;;;;;;5091426;28;20120;-79
2023/09/09 01:07:50;;;;;;;11.45;5.75;;;20.50;99.90;;;;;;5092118;28;20036;-79
2023/09/09 01:10:18;;;;;;;10.68;6.30;;;20.50;99.90;;;;;;5091564;28;20047;-78
2023/09/09 01:12:44;;;;;;;12.02;5.50;;;20.50;99.90;;;;;;5091966;28;20123;-78
2023/09/09 01:15:11;;;;;;;11.00;6.05;;;20.50;99.90;;;;;;5091015;28;20082;-79
2023/09/09 01:17:38;;;;;;;14.57;6.38;;;20.50;99.90;;;;;;5073680;28;20104;-78
2023/09/09 01:20:09;;;;;;;8.00;5.47;;;20.50;99.90;;;;;;5091235;28;20040;-78
2023/09/09 01:22:39;;;;;;;9.82;5.65;;;20.40;99.90;;;;;;5091795;28;20031;-78
2023/09/09 01:25:06;;;;;;;11.13;5.90;;;20.40;99.90;;;;;;5091195;28;20061;-79
2023/09/09 01:27:32;;;;;;;9.20;5.75;;;20.40;99.90;;;;;;5091990;28;20464;-79
2023/09/09 01:29:58;;;;;;;11.63;5.28;;;20.30;99.90;;;;;;5091352;28;20032;-79
2023/09/09 01:32:25;;;;;;;12.75;5.60;;;20.30;99.90;;;;;;5092097;28;20028;-79
2023/09/09 01:34:51;;;;;;;12.38;5.90;;;20.20;99.90;;;;;;5090960;28;20039;-79
2023/09/09 01:37:17;;;;;;;12.60;5.55;;;20.20;99.90;;;;;;5092300;28;20056;-78
2023/09/09 01:39:43;;;;;;;9.45;5.97;;;20.10;99.90;;;;;;5092670;28;20051;-78
2023/09/09 01:42:08;;;;;;;10.20;5.88;;;20.10;99.90;;;;;;5073393;28;20036;-78
2023/09/09 01:44:34;;;;;;;9.88;5.97;;;20.10;99.90;;;;;;5092073;28;20051;-78
2023/09/09 01:47:00;;;;;;;11.25;6.38;;;20.10;99.90;;;;;;5092167;28;20105;-78
2023/09/09 01:49:25;;;;;;;9.80;5.88;;;20.00;99.90;;;;;;5091596;28;20059;-79
2023/09/09 01:51:51;;;;;;;10.63;5.95;;;20.00;99.90;;;;;;5090681;28;20387;-78
2023/09/09 01:54:17;;;;;;;12.38;6.35;;;19.90;99.90;;;;;;5072960;28;20111;-78
2023/09/09 01:56:42;;;;;;;9.23;5.80;;;19.90;99.90;;;;;;5091745;28;20097;-78
2023/09/09 01:59:08;;;;;;;9.23;5.90;;;19.90;99.90;;;;;;5090259;28;20036;-78
2023/09/09 02:01:34;;;;;;;11.88;6.47;;;19.80;99.90;;;;;;5091536;28;20027;-78
2023/09/09 02:03:59;;;;;;;12.32;6.30;;;19.80;99.90;;;;;;5090782;28;20163;-78
2023/09/09 02:06:27;;;;;;;10.45;6.00;;;19.80;99.90;;;;;;5091307;28;20021;-78
2023/09/09 02:08:53;;;;;;;9.80;6.43;;;19.80;99.90;;;;;;5090735;28;20035;-78
2023/09/09 02:11:19;;;;;;;13.18;6.72;;;19.70;99.90;;;;;;5090716;28;20024;-78
2023/09/09 02:13:45;;;;;;;11.88;6.70;;;19.70;99.90;;;;;;5090999;28;20035;-78
2023/09/09 02:16:10;;;;;;;10.38;6.03;;;19.60;99.90;;;;;;5090386;28;20178;-78
2023/09/09 02:18:40;;;;;;;8.68;6.30;;;19.60;99.90;;;;;;5090827;28;20131;-78
2023/09/09 02:21:06;;;;;;;12.10;6.00;;;19.50;99.90;;;;;;5090478;28;20077;-78
2023/09/09 02:23:32;;;;;;;12.38;5.88;;;19.50;99.90;;;;;;5091229;28;20038;-77
2023/09/09 02:25:58;;;;;;;21.50;7.10;;;19.50;99.90;;;;;;5090151;28;20110;-77
2023/09/09 02:28:25;;;;;;;14.02;6.75;;;19.50;99.90;;;;;;5090964;28;20424;-77
2023/09/09 02:30:50;;;;;;;12.35;6.80;;;19.40;99.90;;;;;;5090217;28;20372;-77
2023/09/09 02:33:16;;;;;;;13.52;6.60;;;19.40;99.90;;;;;;5072129;28;20024;-77
2023/09/09 02:35:45;;;;;;;13.75;6.72;;;19.40;99.90;;;;;;5072330;28;20059;-77
2023/09/09 02:38:10;;;;;;;11.68;6.70;;;19.40;99.90;;;;;;5089891;28;20433;-77
2023/09/09 02:40:36;;;;;;;12.70;6.78;;;19.40;99.90;;;;;;5090350;28;20085;-77
2023/09/09 02:43:02;;;;;;;11.43;6.53;;;19.30;99.90;;;;;;5071643;28;20028;-77
2023/09/09 02:45:28;;;;;;;10.20;5.85;;;19.30;99.90;;;;;;5090421;28;20055;-77
2023/09/09 02:47:54;;;;;;;10.55;6.53;;;19.30;99.90;;;;;;5090213;28;20103;-77
2023/09/09 02:50:20;;;;;;;8.98;6.35;;;19.30;99.90;;;;;;5090678;28;20035;-77
2023/09/09 02:52:48;;;;;;;8.68;6.05;;;19.20;99.90;;;;;;5090307;28;20024;-77
2023/09/09 02:55:14;;;;;;;10.55;6.80;;;19.20;99.90;;;;;;5089543;28;20611;-77
2023/09/09 02:57:39;;;;;;;11.40;6.40;;;19.10;99.90;;;;;;5071997;28;20126;-77
2023/09/09 03:00:07;;;;;;;12.82;6.80;;;19.10;99.90;;;;;;5089796;28;20055;-77
2023/09/09 03:02:33;;;;;;;11.15;7.00;;;19.10;99.90;;;;;;5090351;28;20044;-77
2023/09/09 03:04:59;;;;;;;11.85;7.22;;;19.00;99.90;;;;;;5093258;28;20024;-77
2023/09/09 03:07:25;;;;;;;13.73;7.07;;;19.00;99.90;;;;;;5094199;28;20107;-77
2023/09/09 03:09:50;;;;;;;12.40;6.95;;;19.00;99.90;;;;;;5093992;28;20338;-77
2023/09/09 03:12:20;;;;;;;9.55;6.75;;;18.90;99.90;;;;;;5093579;28;20039;-77
2023/09/09 03:14:47;;;;;;;13.40;6.90;;;19.00;99.90;;;;;;5094102;28;20031;-77
2023/09/09 03:17:14;;;;;;;15.63;7.65;;;18.90;99.90;;;;;;5093350;28;20429;-77
2023/09/09 03:19:39;;;;;;;11.35;7.50;;;18.80;99.90;;;;;;5093897;28;20036;-77
2023/09/09 03:22:05;;;;;;;11.93;6.85;;;18.80;99.90;;;;;;5093199;28;20020;-76
2023/09/09 03:24:31;;;;;;;11.20;7.00;;;18.70;99.90;;;;;;5094077;28;20058;-77
2023/09/09 03:26:57;;;;;;;12.40;7.57;;;18.70;99.90;;;;;;5093605;28;20123;-77
2023/09/09 03:29:23;;;;;;;11.15;6.97;;;18.70;99.90;;;;;;5094000;28;20500;-77
2023/09/09 03:31:48;;;;;;;13.80;7.55;;;18.70;99.90;;;;;;5093918;28;20095;-76
2023/09/09 03:34:14;;;;;;;13.02;7.85;;;18.60;99.90;;;;;;5093188;28;20078;-76
2023/09/09 03:36:42;;;;;;;13.90;8.40;;;18.60;99.90;;;;;;5093820;28;20036;-76
2023/09/09 03:39:08;;;;;;;13.95;7.57;;;18.60;99.90;;;;;;5093123;28;20067;-76
2023/09/09 03:41:34;;;;;;;13.25;7.13;;;18.60;99.90;;;;;;5093378;28;20073;-77
2023/09/09 03:43:59;;;;;;;12.45;6.85;;;18.50;99.90;;;;;;5093187;28;20103;-77
2023/09/09 03:46:25;;;;;;;14.43;7.65;;;18.50;99.90;;;;;;5093924;28;20497;-76
2023/09/09 03:48:51;;;;;;;14.55;7.43;;;18.50;99.90;;;;;;5093631;28;20157;-76
2023/09/09 03:51:17;;;;;;;10.30;6.70;;;18.50;99.90;;;;;;5093124;28;20111;-77
2023/09/09 03:53:42;;;;;;;12.63;7.88;;;18.50;99.90;;;;;;5075344;28;20098;-76
2023/09/09 03:56:08;;;;;;;11.93;7.22;;;18.50;99.90;;;;;;5092678;28;20074;-77
2023/09/09 03:58:34;;;;;;;12.70;7.47;;;18.40;99.90;;;;;;5093396;28;20024;-76
2023/09/09 04:01:08;;;;;;;13.18;7.28;;;18.40;99.90;;;;;;5092639;28;20576;-76
2023/09/09 04:03:35;;;;;;;12.75;7.28;;;18.40;99.90;;;;;;5093411;28;20020;-76
2023/09/09 04:06:06;;;;;;;10.00;6.97;;;18.40;99.90;;;;;;5092607;28;20032;-77
2023/09/09 04:08:33;;;;;;;12.38;7.35;;;18.40;99.90;;;;;;5093418;28;20479;-77
2023/09/09 04:10:59;;;;;;;12.30;6.85;;;18.40;99.90;;;;;;5092987;28;20085;-77
2023/09/09 04:13:25;;;;;;;16.15;7.50;;;18.40;99.90;;;;;;5093325;28;20028;-76
2023/09/09 04:15:54;;;;;;;12.85;7.50;;;18.40;99.90;;;;;;5092622;28;20401;-77
2023/09/09 04:18:20;;;;;;;13.43;7.22;;;18.30;99.90;;;;;;5073939;28;20039;-76
2023/09/09 04:20:46;;;;;;;17.13;7.00;;;18.30;99.90;;;;;;5092941;28;20075;-76
2023/09/09 04:23:12;;;;;;;15.40;7.47;;;18.30;99.90;;;;;;5092143;28;20054;-77
2023/09/09 04:25:37;;;;;;;11.77;7.10;;;18.30;99.90;;;;;;5093399;28;20035;-76
2023/09/09 04:28:04;;;;;;;11.93;6.13;;;18.30;99.90;;;;;;5092565;28;20107;-77
2023/09/09 04:30:29;;;;;;;12.57;7.20;;;18.30;99.90;;;;;;5092827;28;20036;-77
2023/09/09 04:32:55;;;;;;;12.45;7.10;;;18.30;99.90;;;;;;5092508;28;20111;-77
2023/09/09 04:35:21;;;;;;;9.85;6.95;;;18.30;99.90;;;;;;5092261;28;20020;-77
2023/09/09 04:37:46;;;;;;;12.60;7.05;;;18.40;99.90;;;;;;5092455;28;20025;-77
2023/09/09 04:40:12;;;;;;;12.07;6.95;;;18.40;99.90;;;;;;5092122;28;20396;-77
2023/09/09 04:42:38;;;;;;;12.95;7.80;;;18.40;99.90;;;;;;5074321;28;20113;-77
2023/09/09 04:45:04;;;;;;;12.70;8.23;;;18.30;99.90;;;;;;5091524;28;20310;-76
2023/09/09 04:47:30;;;;;;;11.65;7.03;;;18.30;99.90;;;;;;5092617;28;20035;-77
2023/09/09 04:49:58;;;;;;;8.80;6.65;;;18.30;99.90;;;;;;5092471;28;20036;-78
2023/09/09 04:52:24;;;;;;;7.85;6.35;;;18.30;99.90;;;;;;5091931;28;20036;-77
2023/09/09 04:54:49;;;;;;;12.48;7.03;;;18.40;99.90;;;;;;5092490;28;20027;-77
2023/09/09 04:57:16;;;;;;;12.85;7.60;;;18.40;99.90;;;;;;5091657;28;20020;-77
2023/09/09 04:59:42;;;;;;;11.52;7.65;;;18.40;99.90;;;;;;5091788;28;20450;-77
2023/09/09 05:02:08;;;;;;;16.77;7.60;;;18.30;99.90;;;;;;5091748;28;20058;-77
2023/09/09 05:04:33;;;;;;;14.32;7.30;;;18.30;99.90;;;;;;5073893;28;20028;-77
2023/09/09 05:07:00;;;;;;;12.05;7.90;;;18.30;99.90;;;;;;5091811;28;20370;-77
2023/09/09 05:09:27;;;;;;;12.50;7.93;;;18.20;99.90;;;;;;5091555;28;20020;-77
2023/09/09 05:11:52;;;;;;;11.82;7.93;;;18.20;99.90;;;;;;5091749;28;20038;-77
2023/09/09 05:14:18;;;;;;;13.02;7.78;;;18.20;99.90;;;;;;5091309;28;20376;-77
2023/09/09 05:16:44;;;;;;;13.48;7.63;;;18.20;99.90;;;;;;5091780;28;20465;-77
2023/09/09 05:19:09;;;;;;;12.70;7.95;;;18.20;99.90;;;;;;5090829;28;20086;-77
2023/09/09 05:21:35;;;;;;;11.20;7.15;;;18.20;99.90;;;;;;5091705;28;20026;-77
2023/09/09 05:24:02;;;;;;;10.13;7.10;;;18.20;99.90;;;;;;5091381;28;20334;-77
2023/09/09 05:26:28;;;;;;;9.10;7.32;;;18.20;99.90;;;;;;5090713;28;20024;-77
2023/09/09 05:28:53;;;;;;;12.77;7.75;;;18.20;99.90;;;;;;5091471;28;20374;-76
2023/09/09 05:31:19;;;;;;;9.27;6.65;;;18.20;99.90;;;;;;5091105;28;20035;-76
2023/09/09 05:33:45;;;;;;;10.23;7.35;;;18.20;99.90;;;;;;5092086;28;20024;-76
2023/09/09 05:36:11;;;;;;;11.82;7.28;;;18.20;99.90;;;;;;5091027;28;20024;-76
2023/09/09 05:38:36;;;;;;;12.38;7.25;;;18.20;99.90;;;;;;5091132;28;20107;-76
2023/09/09 05:41:02;;;;;;;13.95;7.22;;;18.10;99.90;;;;;;5091397;28;20524;-77
2023/09/09 05:43:28;;;;;;;13.00;7.50;;;18.10;99.90;;;;;;5090740;28;20055;-77
2023/09/09 05:45:56;;;;;;;11.80;7.43;;;18.10;99.90;;;;;;5091623;28;20436;-76
2023/09/09 05:48:22;;;;;;;11.43;6.97;;;18.00;99.90;;;;;;5072343;28;20072;-76
2023/09/09 05:50:48;;;;;;;14.25;8.07;;;18.00;99.90;;;;;;5091282;28;20024;-76
2023/09/09 05:53:14;;;;;;;11.57;7.80;;;18.00;99.90;;;;;;5090283;28;20315;-76
2023/09/09 05:55:39;;;;;;;10.45;7.40;;;18.10;99.90;;;;;;5091101;28;20031;-76
2023/09/09 05:58:05;;;;;;;13.57;7.43;;;18.00;99.90;;;;;;5090928;28;20028;-78
2023/09/09 06:00:31;;;;;;;14.68;8.15;;;18.00;99.90;;;;;;5090959;28;20501;-76
2023/09/09 06:02:57;;;;;;;12.93;8.32;;;18.00;99.90;;;;;;5091280;28;20028;-76
2023/09/09 06:05:23;;;;;;;10.55;8.07;;;18.00;99.90;;;;;;5071922;28;20142;-76
2023/09/09 06:07:48;;;;;;;16.92;8.52;;;18.00;99.90;;;;;;5090986;28;20020;-76
2023/09/09 06:10:14;;;;;;;14.05;8.23;;;18.00;99.90;;;;;;5090557;28;20065;-76
2023/09/09 06:12:40;;;;;;;11.82;7.35;;;18.10;99.90;;;;;;5090997;28;20027;-76
2023/09/09 06:15:06;;;;;;;11.18;7.43;;;18.10;99.90;;;;;;5090684;28;20034;-76
2023/09/09 06:17:32;;;;;;;16.23;8.43;;;18.10;99.90;;;;;;5090366;28;20028;-76
2023/09/09 06:19:57;;;;;;;10.75;7.35;;;18.20;99.90;;;;;;5090313;28;20032;-76
2023/09/09 06:22:23;;;;;;;12.85;7.60;;;18.20;99.90;;;;;;5090145;28;20580;-76
2023/09/09 06:24:49;;;;;;;11.50;7.93;;;18.20;99.90;;;;;;5090740;28;20020;-76
2023/09/09 06:27:14;;;;;;;13.65;7.90;;;18.20;99.90;;;;;;5090498;28;20020;-77
2023/09/09 06:29:40;;;;;;;11.07;7.07;;;18.20;99.90;;;;;;5090734;28;20433;-77
2023/09/09 06:32:09;;;;;;;15.60;7.80;;;18.30;99.90;;;;;;5090742;28;20024;-77
2023/09/09 06:34:35;;;;;;;13.10;7.32;;;18.30;99.90;;;;;;5090529;28;20046;-76
2023/09/09 06:37:00;;;;;;;13.02;8.00;;;18.40;99.90;;;;;;5090424;28;20024;-76
2023/09/09 06:39:26;;;;;;;9.80;7.20;;;18.40;99.90;;;;;;5089981;28;20043;-76
2023/09/09 06:41:52;;;;;;;10.07;7.32;;;18.40;99.90;;;;;;5090603;28;20346;-77
2023/09/09 06:44:17;;;;;;;12.27;6.90;;;18.50;99.90;;;;;;5089790;28;20051;-77
2023/09/09 06:46:43;;;;;;;11.35;6.43;;;18.50;99.90;;;;;;5091034;28;20052;-77
2023/09/09 06:49:09;;;;;;;11.50;6.78;;;18.50;99.90;;;;;;5089856;28;20047;-77
2023/09/09 06:51:35;;;;;;;12.70;8.32;;;18.50;99.90;;;;;;5090242;28;20416;-77
2023/09/09 06:54:01;;;;;;;18.92;7.90;;;18.50;99.90;;;;;;5072238;28;20054;-77
2023/09/09 06:56:27;;;;;;;14.73;7.75;;;18.50;99.90;;;;;;5090180;28;20020;-77
2023/09/09 06:58:52;;;;;;;12.23;7.35;;;18.50;99.90;;;;;;5072128;28;20028;-77
2023/09/09 07:01:18;;;;;;;11.80;6.63;;;18.50;99.90;;;;;;5090024;28;20026;-77
2023/09/09 07:03:44;;;;;;;13.13;8.15;;;18.50;99.90;;;;;;5090795;28;20039;-77
2023/09/09 07:06:09;;;;;;;11.05;7.00;;;18.50;99.90;;;;;;5089905;28;20400;-76
2023/09/09 07:08:39;;;;;;;12.70;6.85;;;18.50;99.90;;;;;;5090025;28;20032;-77
2023/09/09 07:11:05;;;;;;;11.95;7.10;;;18.50;99.90;;;;;;5090226;28;20024;-76
2023/09/09 07:13:30;;;;;;;13.85;7.20;;;18.50;99.90;;;;;;5089541;28;20022;-76
2023/09/09 07:15:56;;;;;;;10.27;7.10;;;18.60;99.90;;;;;;5090287;28;20081;-77
2023/09/09 07:18:22;;;;;;;8.45;7.13;;;18.60;99.90;;;;;;5089657;28;20055;-76
2023/09/09 07:20:48;;;;;;;10.40;6.45;;;18.60;99.90;;;;;;5071991;28;20035;-76
2023/09/09 07:23:18;;;;;;;8.82;6.53;;;18.70;99.90;;;;;;5089296;28;20469;-76
2023/09/09 07:25:46;;;;;;;10.23;7.40;;;18.70;99.90;;;;;;5090075;28;20173;-75
2023/09/09 07:28:12;;;;;;;10.57;6.68;;;18.70;99.90;;;;;;5089844;28;20024;-76
2023/09/09 07:30:38;;;;;;;12.10;7.07;;;18.80;99.90;;;;;;5090100;28;20384;-76
2023/09/09 07:33:04;;;;;;;13.13;6.70;;;18.80;99.90;;;;;;5090191;28;20028;-76
2023/09/09 07:35:30;;;;;;;10.10;6.72;;;18.90;99.90;;;;;;5089380;28;20021;-76
2023/09/09 07:37:56;;;;;;;15.88;8.10;;;18.90;99.90;;;;;;5089889;28;20020;-75
2023/09/09 07:40:21;;;;;;;11.82;7.03;;;18.90;99.90;;;;;;5089459;28;20449;-76
2023/09/09 07:42:50;;;;;;;14.27;7.68;;;19.00;99.90;;;;;;5089819;28;20028;-77
2023/09/09 07:45:16;;;;;;;13.57;7.38;;;19.00;99.90;;;;;;5089014;28;20104;-77
2023/09/09 07:47:42;;;;;;;12.70;7.15;;;19.10;99.90;;;;;;5090062;28;20099;-77
2023/09/09 07:50:08;;;;;;;10.05;6.95;;;19.10;99.90;;;;;;5091453;28;20471;-77
2023/09/09 07:52:34;;;;;;;9.23;7.28;;;19.10;99.90;;;;;;5075102;28;20024;-78
2023/09/09 07:55:00;;;;;;;11.18;6.60;;;19.10;99.90;;;;;;5094105;28;20372;-78
2023/09/09 07:57:26;;;;;;;11.82;7.15;;;19.20;99.90;;;;;;5075431;28;20027;-77
2023/09/09 07:59:51;;;;;;;9.18;6.60;;;19.30;99.90;;;;;;5094083;28;20118;-76
2023/09/09 08:02:17;;;;;;;10.93;6.55;;;19.40;99.90;;;;;;5093404;28;20441;-76
2023/09/09 08:04:43;;;;;;;10.70;7.25;;;19.60;99.90;;;;;;5093493;28;20049;-77
2023/09/09 08:07:08;;;;;;;10.52;5.93;;;19.80;99.90;;;;;;5094331;28;20031;-77
2023/09/09 08:09:34;;;;;;;13.50;6.57;;;20.00;99.90;;;;;;5093476;28;20028;-77
2023/09/09 08:12:00;;;;;;;7.75;5.90;;;20.10;99.90;;;;;;5075338;28;20066;-77
2023/09/09 08:14:25;;;;;;;9.38;5.88;;;20.20;99.90;;;;;;5092285;28;20035;-77
2023/09/09 08:16:51;;;;;;;7.78;6.00;;;20.40;99.90;;;;;;5092945;28;20043;-77
2023/09/09 08:19:17;;;;;;;11.32;6.07;;;20.60;99.90;;;;;;5074010;28;20028;-77
2023/09/09 08:21:43;;;;;;;13.80;6.40;;;20.70;99.90;;;;;;5092519;28;20039;-76
2023/09/09 08:24:09;;;;;;;12.38;5.45;;;20.80;99.90;;;;;;5092922;28;20068;-78
2023/09/09 08:26:34;;;;;;;11.07;5.97;;;20.90;99.90;;;;;;5092925;28;20169;-78
2023/09/09 08:29:00;;;;;;;10.68;5.90;;;21.00;99.90;;;;;;5093298;28;20029;-79
2023/09/09 08:31:26;;;;;;;11.80;5.93;;;21.20;99.90;;;;;;5092809;28;20465;-77
2023/09/09 08:33:51;;;;;;;9.02;5.85;;;21.20;99.90;;;;;;5093267;28;20392;-77
2023/09/09 08:36:17;;;;;;;10.95;5.90;;;21.30;99.90;;;;;;5092610;28;20024;-77
2023/09/09 08:38:43;;;;;;;9.90;5.50;;;21.30;99.90;;;;;;5092864;28;20047;-77
2023/09/09 08:41:24;;;;;;;12.27;5.60;;;21.40;99.90;;;;;;5092948;28;20020;-77
2023/09/09 08:44:14;;;;;;;7.18;5.20;;;21.40;99.90;;;;;;5093159;28;20026;-77
2023/09/09 08:46:40;;;;;;;7.68;4.47;;;21.50;99.90;;;;;;5092890;28;20044;-77
2023/09/09 08:49:11;;;;;;;7.43;5.30;;;21.60;99.90;;;;;;5092927;28;20024;-77
2023/09/09 08:51:52;;;;;;;9.20;5.25;;;21.70;99.90;;;;;;5091728;28;20027;-76
2023/09/09 08:54:18;;;;;;;9.32;5.40;;;21.80;99.90;;;;;;5091719;28;20024;-76
2023/09/09 08:56:44;;;;;;;12.25;5.72;;;21.70;99.90;;;;;;5091314;28;20026;-76
2023/09/09 08:59:12;;;;;;;11.07;5.20;;;21.70;99.90;;;;;;5091911;28;20338;-76
2023/09/09 09:01:39;;;;;;;5.95;4.55;;;21.70;99.90;;;;;;5090529;28;20056;-76
2023/09/09 09:04:05;;;;;;;7.32;5.10;;;21.70;99.90;;;;;;5092465;28;20020;-76
2023/09/09 09:06:33;;;;;;;11.15;5.60;;;21.70;99.90;;;;;;5091556;28;20024;-76
2023/09/09 09:08:59;;;;;;;14.50;5.57;;;21.70;99.90;;;;;;5092484;28;20028;-77
2023/09/09 09:11:25;;;;;;;11.40;5.72;;;21.60;99.90;;;;;;5091774;28;20362;-76
2023/09/09 09:13:51;;;;;;;11.40;5.97;;;21.50;99.90;;;;;;5092137;28;20020;-77
2023/09/09 09:16:18;;;;;;;10.77;4.72;;;21.50;99.90;;;;;;5091803;28;20128;-77
2023/09/09 09:18:44;;;;;;;8.45;4.70;;;21.50;99.90;;;;;;5092321;28;20032;-76
2023/09/09 09:21:10;;;;;;;6.28;4.53;;;21.60;99.90;;;;;;5092405;28;20111;-77
2023/09/09 09:23:44;;;;;;;8.43;4.72;;;21.60;99.90;;;;;;5073246;28;20469;-77
2023/09/09 09:26:26;;;;;;;7.15;5.00;;;21.60;99.90;;;;;;5092016;28;20024;-77
2023/09/09 09:28:52;;;;;;;11.38;5.57;;;21.60;99.90;;;;;;5092029;28;20020;-77
2023/09/09 09:31:21;;;;;;;10.63;5.50;;;21.60;99.90;;;;;;5092196;28;20042;-77
2023/09/09 09:33:49;;;;;;;9.35;6.13;;;21.60;99.90;;;;;;5092483;28;20442;-77
2023/09/09 09:36:17;;;;;;;9.95;5.65;;;21.70;99.90;;;;;;5091918;28;20030;-76
2023/09/09 09:38:43;;;;;;;9.95;5.40;;;21.80;99.90;;;;;;5090651;28;20103;-76
2023/09/09 09:41:09;;;;;;;12.20;6.30;;;21.70;99.90;;;;;;5091648;28;20032;-76
2023/09/09 09:43:36;;;;;;;10.85;5.75;;;21.80;99.90;;;;;;5091602;28;20405;-76
2023/09/09 09:46:15;;;;;;;8.43;5.53;;;21.90;99.90;;;;;;5091749;28;20571;-76
2023/09/09 09:48:41;;;;;;;7.78;5.25;;;21.80;99.90;;;;;;5090890;28;20028;-76
2023/09/09 09:51:07;;;;;;;11.65;6.00;;;21.90;99.90;;;;;;5091355;28;20027;-76
2023/09/09 09:53:57;;;;;;;8.55;5.63;;;21.90;99.90;;;;;;5090763;28;20031;-76
2023/09/09 09:56:22;;;;;;;10.45;4.78;;;21.90;99.90;;;;;;5089935;28;20051;-77
2023/09/09 09:58:50;;;;;;;7.32;5.05;;;21.90;99.90;;;;;;5072980;28;20530;-77
2023/09/09 10:01:16;;;;;;;8.27;5.35;;;21.90;99.90;;;;;;5091329;28;20043;-76
2023/09/09 10:03:49;;;;;;;8.27;4.63;;;21.90;99.90;;;;;;5090690;28;20449;-77
2023/09/09 10:06:20;;;;;;;9.30;4.30;;;22.00;99.90;;;;;;5091139;28;20097;-76
2023/09/09 10:08:54;;;;;;;9.00;5.30;;;22.00;99.90;;;;;;5091089;28;20059;-77
2023/09/09 10:11:27;;;;;;;9.88;5.18;;;22.00;99.90;;;;;;5090918;28;20028;-77
2023/09/09 10:14:08;;;;;;;7.47;4.55;;;22.00;99.90;;;;;;5090816;28;20028;-77
2023/09/09 10:16:36;;;;;;;6.90;4.25;;;22.00;99.90;;;;;;5090134;28;20024;-77
2023/09/09 10:19:03;;;;;;;10.40;4.90;;;22.00;99.90;;;;;;5072875;28;20131;-77
2023/09/09 10:21:31;;;;;;;7.28;4.38;;;22.10;99.90;;;;;;5090403;28;20032;-77
2023/09/09 10:23:59;;;;;;;8.27;4.70;;;22.10;99.90;;;;;;5090804;28;20027;-77
2023/09/09 10:26:25;;;;;;;10.73;5.30;;;22.10;99.90;;;;;;5090198;28;20112;-77
2023/09/09 10:28:53;;;;;;;9.93;5.13;;;22.10;99.90;;;;;;5091249;28;20076;-77
2023/09/09 10:31:20;;;;;;;8.27;5.32;;;22.20;99.90;;;;;;5091137;28;20028;-78
2023/09/09 10:33:47;;;;;;;11.10;5.25;;;22.30;99.90;;;;;;5089950;28;20024;-78
2023/09/09 10:36:15;;;;;;;12.52;5.65;;;22.30;99.90;;;;;;5090761;28;20353;-77
2023/09/09 10:38:41;;;;;;;12.68;5.43;;;22.40;99.90;;;;;;5091164;28;20028;-76
2023/09/09 10:41:08;;;;;;;8.68;4.57;;;22.50;99.90;;;;;;5091188;28;20097;-77
2023/09/09 10:43:33;;;;;;;9.25;4.38;;;22.50;99.90;;;;;;5090001;28;20169;-77
2023/09/09 10:45:59;;;;;;;8.43;5.20;;;22.70;99.90;;;;;;5090394;28;20108;-77
2023/09/09 10:48:27;;;;;;;6.70;4.30;;;22.70;99.90;;;;;;5090003;28;20111;-77
2023/09/09 10:50:53;;;;;;;9.35;4.72;;;22.90;99.90;;;;;;5072643;28;20441;-77
2023/09/09 10:53:28;;;;;;;13.13;5.00;;;23.00;99.90;;;;;;5090806;28;20423;-77
2023/09/09 10:56:13;;;;;;;6.80;3.97;;;23.20;99.90;;;;;;5090905;28;20028;-78
2023/09/09 10:58:39;;;;;;;8.45;4.30;;;23.30;99.90;;;;;;5090420;28;20020;-78
2023/09/09 11:01:09;;;;;;;8.38;3.70;;;23.40;99.90;;;;;;5090648;28;20032;-78
2023/09/09 11:03:57;;;;;;;8.73;4.25;;;23.50;99.90;;;;;;5090241;28;20106;-76
2023/09/09 11:06:31;;;;;;;7.03;3.97;;;23.50;99.90;;;;;;5090896;28;20032;-75
2023/09/09 11:09:00;;;;;;;7.93;4.25;;;23.60;99.90;;;;;;5090746;28;20055;-75
2023/09/09 11:11:33;;;;;;;7.45;4.70;;;23.60;99.90;;;;;;5090580;28;20329;-76
2023/09/09 11:14:02;;;;;;;20.13;5.47;;;23.60;99.90;;;;;;5090600;28;20032;-76
2023/09/09 11:16:41;;;;;;;9.52;4.35;;;23.70;99.90;;;;;;5090186;28;20089;-76
2023/09/09 11:19:11;;;;;;;9.70;4.53;;;23.60;99.90;;;;;;5090706;28;20089;-77
2023/09/09 11:21:43;;;;;;;9.45;3.97;;;23.50;99.90;;;;;;5090850;28;20115;-77
2023/09/09 11:24:10;;;;;;;7.55;4.20;;;23.40;99.90;;;;;;5090878;28;20341;-77
2023/09/09 11:26:58;;;;;;;7.40;4.00;;;23.40;99.90;;;;;;5094178;28;20032;-78
2023/09/09 11:29:24;;;;;;;8.20;3.67;;;23.40;99.90;;;;;;5094838;28;20028;-76
2023/09/09 11:31:49;;;;;;;6.80;3.83;;;23.40;99.90;;;;;;5094325;28;20032;-77
2023/09/09 11:34:15;;;;;;;4.93;3.67;;;23.40;99.90;;;;;;5094845;28;20020;-76
2023/09/09 11:36:41;;;;;;;5.85;4.15;;;23.40;99.90;;;;;;5093952;28;20348;-76
2023/09/09 11:39:07;;;;;;;7.40;3.85;;;23.40;99.90;;;;;;5093803;28;20042;-77
2023/09/09 11:41:35;;;;;;;8.82;4.28;;;23.50;99.90;;;;;;5093576;28;20028;-76
2023/09/09 11:44:05;;;;;;;5.22;3.13;;;23.60;99.90;;;;;;5093979;28;20134;-77
2023/09/09 11:46:43;;;;;;;4.00;3.20;;;23.60;99.90;;;;;;5093194;28;20403;-77
2023/09/09 11:49:11;;;;;;;5.93;3.65;;;23.70;99.90;;;;;;5094092;28;20060;-77
2023/09/09 11:51:37;;;;;;;6.50;3.05;;;23.80;99.90;;;;;;5074903;28;20034;-77
2023/09/09 11:54:04;;;;;;;8.40;3.60;;;24.00;99.90;;;;;;5093759;28;20095;-76
2023/09/09 11:56:33;;;;;;;4.38;3.17;;;24.00;99.90;;;;;;5093065;28;20044;-76
2023/09/09 11:59:05;;;;;;;5.03;3.28;;;24.10;99.90;;;;;;5093901;28;20119;-76
2023/09/09 12:01:40;;;;;;;5.38;3.15;;;24.10;99.90;;;;;;5074756;28;20032;-77
2023/09/09 12:04:06;;;;;;;7.20;3.60;;;24.20;99.90;;;;;;5093700;28;20491;-77
2023/09/09 12:06:33;;;;;;;4.85;2.88;;;24.30;99.90;;;;;;5093259;28;20107;-77
2023/09/09 12:08:59;;;;;;;5.68;3.30;;;24.50;99.90;;;;;;5093360;28;20397;-77
2023/09/09 12:11:25;;;;;;;4.93;3.05;;;24.50;99.90;;;;;;5093476;28;20020;-77
2023/09/09 12:13:51;;;;;;;5.05;3.63;;;24.60;99.90;;;;;;5092964;28;20085;-78
2023/09/09 12:16:17;;;;;;;6.30;3.33;;;24.70;99.90;;;;;;5093364;28;20032;-76
2023/09/09 12:18:51;;;;;;;6.63;3.50;;;24.80;99.90;;;;;;5092886;28;20534;-77
2023/09/09 12:21:17;;;;;;;4.00;3.22;;;24.80;99.90;;;;;;5093146;28;20040;-77
2023/09/09 12:23:45;;;;;;;6.70;3.20;;;24.90;99.90;;;;;;5092701;28;20073;-78
2023/09/09 12:26:13;;;;;;;7.57;3.55;;;24.90;99.90;;;;;;5092890;28;20028;-77
2023/09/09 12:28:44;;;;;;;5.80;3.45;;;24.90;99.90;;;;;;5091645;28;20450;-78
2023/09/09 12:31:11;;;;;;;7.10;3.63;;;25.00;99.90;;;;;;5092763;28;20031;-77
2023/09/09 12:33:48;;;;;;;5.38;3.63;;;25.00;99.90;;;;;;5091442;28;20047;-77
2023/09/09 12:36:23;;;;;;;5.03;3.20;;;25.00;99.90;;;;;;5092221;28;20028;-77
2023/09/09 12:38:50;;;;;;;27.25;4.40;;;25.10;99.90;;;;;;5091353;28;20050;-76
2023/09/09 12:41:22;;;;;;;8.48;3.83;;;25.10;99.90;;;;;;5092585;28;20032;-76